IBE04BR LEMD-LEBB
Flight info
| Callsign | IBE04BR |
|---|---|
| Flight time | 0h 35m |
| Altitude | 21000 |
| Route | RBO N867 DGO |
| Aircraft | A320/M-SDE3FGHIRWY/LB1 |
Departure
| Time | 2026-04-30 10:17 |
|---|---|
| Airport | Adolfo Suárez Madrid–Barajas Airport (LEMD) |
Arrival
| Time | 2026-04-30 10:52 |
|---|---|
| Airport | Bilbao Airport (LEBB) |
| Time | Latitude | Longitude | Altitude | Speed | Heading |
|---|---|---|---|---|---|
| 2026-04-30 09:45 | 40.49550 | -3.58972 | 2022 ft | 0 kts | 269° |
| 2026-04-30 10:04 | 40.49550 | -3.58948 | 2025 ft | 4 kts | 269° |
| 2026-04-30 10:04 | 40.49550 | -3.58919 | 2033 ft | 4 kts | 265° |
| 2026-04-30 10:04 | 40.49559 | -3.58891 | 2030 ft | 4 kts | 207° |
| 2026-04-30 10:05 | 40.49582 | -3.58885 | 2028 ft | 3 kts | 179° |
| 2026-04-30 10:05 | 40.49587 | -3.58885 | 2028 ft | 0 kts | 179° |
| 2026-04-30 10:07 | 40.49555 | -3.58885 | 2022 ft | 13 kts | 179° |
| 2026-04-30 10:08 | 40.49460 | -3.58883 | 2022 ft | 15 kts | 179° |
| 2026-04-30 10:08 | 40.49353 | -3.58881 | 2027 ft | 16 kts | 179° |
| 2026-04-30 10:08 | 40.49235 | -3.58881 | 2022 ft | 18 kts | 181° |
| 2026-04-30 10:08 | 40.49108 | -3.58879 | 2024 ft | 19 kts | 179° |
| 2026-04-30 10:09 | 40.48970 | -3.58878 | 2027 ft | 20 kts | 180° |
| 2026-04-30 10:09 | 40.48826 | -3.58876 | 2022 ft | 20 kts | 179° |
| 2026-04-30 10:09 | 40.48761 | -3.58805 | 2026 ft | 14 kts | 94° |
| 2026-04-30 10:09 | 40.48762 | -3.58674 | 2022 ft | 15 kts | 89° |
| 2026-04-30 10:10 | 40.48763 | -3.58527 | 2020 ft | 18 kts | 91° |
| 2026-04-30 10:10 | 40.48762 | -3.58339 | 2013 ft | 23 kts | 90° |
| 2026-04-30 10:10 | 40.48763 | -3.58128 | 2006 ft | 15 kts | 88° |
| 2026-04-30 10:10 | 40.48836 | -3.58040 | 2002 ft | 15 kts | 35° |
| 2026-04-30 10:11 | 40.48854 | -3.57897 | 1998 ft | 18 kts | 85° |
| 2026-04-30 10:11 | 40.48861 | -3.57715 | 1992 ft | 22 kts | 95° |
| 2026-04-30 10:11 | 40.48861 | -3.57500 | 1988 ft | 25 kts | 89° |
| 2026-04-30 10:11 | 40.48858 | -3.57259 | 1984 ft | 28 kts | 91° |
| 2026-04-30 10:12 | 40.48861 | -3.57016 | 1979 ft | 27 kts | 89° |
| 2026-04-30 10:12 | 40.48863 | -3.56761 | 1975 ft | 21 kts | 89° |
| 2026-04-30 10:12 | 40.48865 | -3.56575 | 1971 ft | 21 kts | 89° |
| 2026-04-30 10:12 | 40.48866 | -3.56392 | 1966 ft | 21 kts | 91° |
| 2026-04-30 10:13 | 40.48887 | -3.56260 | 1962 ft | 15 kts | 36° |
| 2026-04-30 10:13 | 40.48990 | -3.56247 | 1962 ft | 21 kts | 360° |
| 2026-04-30 10:13 | 40.49168 | -3.56246 | 1962 ft | 27 kts | 0° |
| 2026-04-30 10:13 | 40.49359 | -3.56248 | 1962 ft | 28 kts | 359° |
| 2026-04-30 10:14 | 40.49551 | -3.56251 | 1961 ft | 24 kts | 360° |
| 2026-04-30 10:14 | 40.49715 | -3.56239 | 1961 ft | 23 kts | 28° |
| 2026-04-30 10:14 | 40.49938 | -3.56077 | 1958 ft | 14 kts | 71° |
| 2026-04-30 10:15 | 40.49980 | -3.55969 | 1959 ft | 13 kts | 48° |
| 2026-04-30 10:15 | 40.50081 | -3.55919 | 1960 ft | 15 kts | 4° |
| 2026-04-30 10:15 | 40.50129 | -3.55920 | 1960 ft | 0 kts | 358° |
| 2026-04-30 10:15 | 40.50305 | -3.55922 | 1961 ft | 65 kts | 360° |
| 2026-04-30 10:16 | 40.50996 | -3.55927 | 1960 ft | 131 kts | 360° |
| 2026-04-30 10:16 | 40.52091 | -3.55931 | 1963 ft | 181 kts | 1° |
| 2026-04-30 10:16 | 40.53397 | -3.55931 | 2425 ft | 196 kts | 0° |
| 2026-04-30 10:17 | 40.56132 | -3.55182 | 3877 ft | 212 kts | 20° |
| 2026-04-30 10:17 | 40.59188 | -3.53771 | 4738 ft | 253 kts | 21° |
| 2026-04-30 10:17 | 40.60729 | -3.52604 | 5465 ft | 266 kts | 37° |
| 2026-04-30 10:18 | 40.62214 | -3.51001 | 6030 ft | 285 kts | 43° |
| 2026-04-30 10:18 | 40.63683 | -3.49200 | 6891 ft | 289 kts | 44° |
| 2026-04-30 10:18 | 40.65161 | -3.47400 | 7854 ft | 291 kts | 42° |
| 2026-04-30 10:19 | 40.68241 | -3.43867 | 9593 ft | 301 kts | 40° |
| 2026-04-30 10:19 | 40.69860 | -3.42064 | 10296 ft | 312 kts | 40° |
| 2026-04-30 10:19 | 40.71587 | -3.40149 | 10595 ft | 336 kts | 39° |
| 2026-04-30 10:19 | 40.73437 | -3.38091 | 10867 ft | 359 kts | 40° |
| 2026-04-30 10:20 | 40.75374 | -3.35931 | 11452 ft | 368 kts | 40° |
| 2026-04-30 10:20 | 40.79330 | -3.31494 | 12921 ft | 378 kts | 40° |
| 2026-04-30 10:20 | 40.81341 | -3.29228 | 13662 ft | 383 kts | 39° |
| 2026-04-30 10:21 | 40.83378 | -3.27009 | 14326 ft | 386 kts | 34° |
| 2026-04-30 10:21 | 40.85699 | -3.25215 | 14966 ft | 388 kts | 22° |
| 2026-04-30 10:21 | 40.88255 | -3.24052 | 15613 ft | 390 kts | 11° |
| 2026-04-30 10:21 | 40.88483 | -3.23983 | 15667 ft | 390 kts | 10° |
| 2026-04-30 10:22 | 40.90911 | -3.23425 | 16262 ft | 392 kts | 7° |
| 2026-04-30 10:22 | 40.93616 | -3.22829 | 16897 ft | 396 kts | 7° |
| 2026-04-30 10:22 | 40.96346 | -3.22220 | 17531 ft | 400 kts | 7° |
| 2026-04-30 10:22 | 40.99097 | -3.21604 | 18146 ft | 403 kts | 7° |
| 2026-04-30 10:23 | 41.01878 | -3.20981 | 18695 ft | 407 kts | 7° |
| 2026-04-30 10:23 | 41.04643 | -3.20361 | 19218 ft | 410 kts | 7° |
| 2026-04-30 10:23 | 41.07468 | -3.19728 | 19742 ft | 413 kts | 7° |
| 2026-04-30 10:23 | 41.10314 | -3.19089 | 20270 ft | 417 kts | 7° |
| 2026-04-30 10:24 | 41.13184 | -3.18442 | 20782 ft | 420 kts | 7° |
| 2026-04-30 10:24 | 41.16069 | -3.17787 | 21040 ft | 422 kts | 7° |
| 2026-04-30 10:24 | 41.18993 | -3.17125 | 21101 ft | 433 kts | 7° |
| 2026-04-30 10:24 | 41.21990 | -3.16448 | 21095 ft | 439 kts | 7° |
| 2026-04-30 10:25 | 41.25012 | -3.15764 | 21105 ft | 441 kts | 7° |
| 2026-04-30 10:25 | 41.28039 | -3.15077 | 21099 ft | 442 kts | 7° |
| 2026-04-30 10:25 | 41.31028 | -3.14399 | 21102 ft | 442 kts | 7° |
| 2026-04-30 10:25 | 41.34051 | -3.13715 | 21098 ft | 442 kts | 7° |
| 2026-04-30 10:26 | 41.37086 | -3.13032 | 21097 ft | 442 kts | 7° |
| 2026-04-30 10:26 | 41.40117 | -3.12351 | 21095 ft | 442 kts | 7° |
| 2026-04-30 10:26 | 41.43151 | -3.11664 | 21091 ft | 442 kts | 7° |
| 2026-04-30 10:26 | 41.46177 | -3.10974 | 21096 ft | 442 kts | 7° |
| 2026-04-30 10:27 | 41.49208 | -3.10280 | 21101 ft | 442 kts | 7° |
| 2026-04-30 10:27 | 41.52239 | -3.09587 | 21096 ft | 442 kts | 7° |
| 2026-04-30 10:27 | 41.55230 | -3.08907 | 21095 ft | 442 kts | 7° |
| 2026-04-30 10:27 | 41.58263 | -3.08219 | 21091 ft | 442 kts | 7° |
| 2026-04-30 10:28 | 41.60308 | -3.07755 | 21096 ft | 442 kts | 7° |
| 2026-04-30 10:28 | 41.64366 | -3.06835 | 21094 ft | 442 kts | 7° |
| 2026-04-30 10:28 | 41.67401 | -3.06148 | 21092 ft | 442 kts | 7° |
| 2026-04-30 10:28 | 41.70436 | -3.05459 | 21090 ft | 442 kts | 7° |
| 2026-04-30 10:29 | 41.73469 | -3.04768 | 21096 ft | 442 kts | 7° |
| 2026-04-30 10:29 | 41.76499 | -3.04072 | 21095 ft | 443 kts | 7° |
| 2026-04-30 10:29 | 41.79534 | -3.03372 | 21092 ft | 443 kts | 7° |
| 2026-04-30 10:29 | 41.82532 | -3.02680 | 21094 ft | 443 kts | 7° |
| 2026-04-30 10:30 | 41.85566 | -3.01982 | 21096 ft | 443 kts | 7° |
| 2026-04-30 10:30 | 41.88605 | -3.01283 | 21095 ft | 443 kts | 7° |
| 2026-04-30 10:30 | 41.91641 | -3.00582 | 21093 ft | 443 kts | 7° |
| 2026-04-30 10:30 | 41.94677 | -2.99881 | 21094 ft | 443 kts | 7° |
| 2026-04-30 10:31 | 41.97716 | -2.99180 | 21099 ft | 443 kts | 7° |
| 2026-04-30 10:31 | 42.00756 | -2.98472 | 21097 ft | 443 kts | 7° |
| 2026-04-30 10:31 | 42.03794 | -2.97763 | 21098 ft | 443 kts | 7° |
| 2026-04-30 10:31 | 42.06828 | -2.97055 | 21099 ft | 443 kts | 7° |
| 2026-04-30 10:32 | 42.09828 | -2.96359 | 21096 ft | 443 kts | 7° |
| 2026-04-30 10:32 | 42.12870 | -2.95653 | 21092 ft | 443 kts | 7° |
| 2026-04-30 10:32 | 42.15909 | -2.94946 | 21088 ft | 443 kts | 7° |
| 2026-04-30 10:32 | 42.18942 | -2.94243 | 21085 ft | 443 kts | 7° |
| 2026-04-30 10:33 | 42.21982 | -2.93538 | 21090 ft | 443 kts | 7° |
| 2026-04-30 10:33 | 42.25018 | -2.92831 | 21089 ft | 443 kts | 7° |
| 2026-04-30 10:33 | 42.28062 | -2.92121 | 21087 ft | 443 kts | 7° |
| 2026-04-30 10:33 | 42.31100 | -2.91412 | 21084 ft | 444 kts | 7° |
| 2026-04-30 10:34 | 42.34103 | -2.90708 | 21086 ft | 444 kts | 7° |
| 2026-04-30 10:34 | 42.37145 | -2.89994 | 21084 ft | 444 kts | 7° |
| 2026-04-30 10:34 | 42.40186 | -2.89279 | 21087 ft | 444 kts | 8° |
| 2026-04-30 10:34 | 42.43179 | -2.88204 | 21088 ft | 447 kts | 18° |
| 2026-04-30 10:35 | 42.46009 | -2.86464 | 21092 ft | 448 kts | 28° |
| 2026-04-30 10:35 | 42.48604 | -2.84108 | 21092 ft | 450 kts | 38° |
| 2026-04-30 10:35 | 42.50950 | -2.81317 | 21025 ft | 446 kts | 41° |
| 2026-04-30 10:35 | 42.53241 | -2.78541 | 20772 ft | 438 kts | 41° |
| 2026-04-30 10:36 | 42.55512 | -2.75798 | 20523 ft | 436 kts | 41° |
| 2026-04-30 10:36 | 42.57751 | -2.73106 | 20282 ft | 435 kts | 41° |
| 2026-04-30 10:36 | 42.60009 | -2.70391 | 20039 ft | 433 kts | 41° |
| 2026-04-30 10:36 | 42.62258 | -2.67678 | 19777 ft | 430 kts | 41° |
| 2026-04-30 10:37 | 42.64475 | -2.64998 | 19250 ft | 425 kts | 41° |
| 2026-04-30 10:37 | 42.66675 | -2.62333 | 18699 ft | 422 kts | 41° |
| 2026-04-30 10:37 | 42.68862 | -2.59681 | 18115 ft | 420 kts | 41° |
| 2026-04-30 10:37 | 42.71030 | -2.57051 | 17560 ft | 416 kts | 41° |
| 2026-04-30 10:38 | 42.73176 | -2.54446 | 17012 ft | 412 kts | 41° |
| 2026-04-30 10:38 | 42.75309 | -2.51853 | 16447 ft | 410 kts | 41° |
| 2026-04-30 10:38 | 42.77425 | -2.49274 | 15890 ft | 408 kts | 42° |
| 2026-04-30 10:38 | 42.79505 | -2.46738 | 15306 ft | 407 kts | 42° |
| 2026-04-30 10:39 | 42.81610 | -2.44166 | 14720 ft | 405 kts | 42° |
| 2026-04-30 10:39 | 42.83705 | -2.41607 | 14111 ft | 405 kts | 42° |
| 2026-04-30 10:39 | 42.85805 | -2.39045 | 13445 ft | 404 kts | 42° |
| 2026-04-30 10:39 | 42.87878 | -2.36516 | 12803 ft | 392 kts | 43° |
| 2026-04-30 10:40 | 42.89864 | -2.34092 | 12203 ft | 375 kts | 43° |
| 2026-04-30 10:40 | 42.91771 | -2.31761 | 11603 ft | 361 kts | 43° |
| 2026-04-30 10:40 | 42.93620 | -2.29499 | 11019 ft | 355 kts | 42° |
| 2026-04-30 10:40 | 42.95622 | -2.27733 | 10600 ft | 340 kts | 21° |
| 2026-04-30 10:41 | 42.97844 | -2.27056 | 10337 ft | 320 kts | 0° |
| 2026-04-30 10:41 | 42.99986 | -2.27441 | 10089 ft | 307 kts | 339° |
| 2026-04-30 10:41 | 43.01855 | -2.28761 | 9937 ft | 301 kts | 319° |
| 2026-04-30 10:41 | 43.03348 | -2.30722 | 9798 ft | 297 kts | 310° |
| 2026-04-30 10:42 | 43.04773 | -2.32770 | 9680 ft | 297 kts | 310° |
| 2026-04-30 10:42 | 43.06196 | -2.34812 | 9541 ft | 296 kts | 310° |
| 2026-04-30 10:42 | 43.07638 | -2.36883 | 8950 ft | 305 kts | 310° |
| 2026-04-30 10:42 | 43.09085 | -2.38959 | 8689 ft | 299 kts | 310° |
| 2026-04-30 10:43 | 43.10527 | -2.41032 | 7907 ft | 309 kts | 310° |
| 2026-04-30 10:43 | 43.11999 | -2.43150 | 7311 ft | 301 kts | 310° |
| 2026-04-30 10:43 | 43.13221 | -2.45317 | 7138 ft | 275 kts | 296° |
| 2026-04-30 10:43 | 43.14027 | -2.47434 | 7031 ft | 253 kts | 291° |
| 2026-04-30 10:44 | 43.14765 | -2.49511 | 6904 ft | 234 kts | 291° |
| 2026-04-30 10:44 | 43.15479 | -2.51455 | 6817 ft | 224 kts | 292° |
| 2026-04-30 10:44 | 43.16173 | -2.53325 | 6699 ft | 217 kts | 292° |
| 2026-04-30 10:44 | 43.16840 | -2.55118 | 6552 ft | 206 kts | 292° |
| 2026-04-30 10:45 | 43.17483 | -2.56851 | 6265 ft | 203 kts | 292° |
| 2026-04-30 10:45 | 43.18108 | -2.58532 | 5986 ft | 198 kts | 292° |
| 2026-04-30 10:45 | 43.18724 | -2.60193 | 5682 ft | 193 kts | 292° |
| 2026-04-30 10:45 | 43.19325 | -2.61815 | 5394 ft | 189 kts | 292° |
| 2026-04-30 10:46 | 43.19900 | -2.63363 | 5132 ft | 175 kts | 292° |
| 2026-04-30 10:46 | 43.20431 | -2.64793 | 4879 ft | 163 kts | 292° |
| 2026-04-30 10:46 | 43.20926 | -2.66131 | 4632 ft | 153 kts | 292° |
| 2026-04-30 10:46 | 43.21403 | -2.67424 | 4399 ft | 151 kts | 291° |
| 2026-04-30 10:47 | 43.21878 | -2.68709 | 4176 ft | 152 kts | 291° |
| 2026-04-30 10:47 | 43.22354 | -2.69999 | 3967 ft | 152 kts | 291° |
| 2026-04-30 10:47 | 43.22832 | -2.71292 | 3725 ft | 152 kts | 292° |
| 2026-04-30 10:47 | 43.23300 | -2.72559 | 3502 ft | 150 kts | 292° |
| 2026-04-30 10:48 | 43.23770 | -2.73831 | 3284 ft | 149 kts | 292° |
| 2026-04-30 10:48 | 43.24237 | -2.75099 | 3066 ft | 149 kts | 292° |
| 2026-04-30 10:48 | 43.24705 | -2.76367 | 2831 ft | 149 kts | 293° |
| 2026-04-30 10:48 | 43.25171 | -2.77631 | 2604 ft | 148 kts | 293° |
| 2026-04-30 10:49 | 43.25637 | -2.78894 | 2395 ft | 150 kts | 294° |
| 2026-04-30 10:49 | 43.26105 | -2.80166 | 2164 ft | 149 kts | 294° |
| 2026-04-30 10:49 | 43.26566 | -2.81415 | 1930 ft | 147 kts | 294° |
| 2026-04-30 10:49 | 43.27016 | -2.82639 | 1653 ft | 144 kts | 295° |
| 2026-04-30 10:50 | 43.27462 | -2.83852 | 1415 ft | 141 kts | 296° |
| 2026-04-30 10:50 | 43.27902 | -2.85045 | 1138 ft | 139 kts | 297° |
| 2026-04-30 10:50 | 43.28328 | -2.86208 | 898 ft | 134 kts | 297° |
| 2026-04-30 10:50 | 43.28737 | -2.87346 | 670 ft | 132 kts | 297° |
| 2026-04-30 10:51 | 43.29172 | -2.88477 | 489 ft | 134 kts | 297° |
| 2026-04-30 10:51 | 43.29586 | -2.89626 | 311 ft | 134 kts | 296° |
| 2026-04-30 10:51 | 43.29993 | -2.90756 | 137 ft | 125 kts | 297° |
| 2026-04-30 10:51 | 43.30322 | -2.91640 | 132 ft | 62 kts | 296° |
| 2026-04-30 10:52 | 43.30352 | -2.91734 | 133 ft | 47 kts | 291° |
| 2026-04-30 10:52 | 43.30483 | -2.91944 | 131 ft | 22 kts | 328° |
| 2026-04-30 10:52 | 43.30515 | -2.91975 | 132 ft | 2 kts | 326° |
| 2026-04-30 10:52 | 43.30563 | -2.92022 | 132 ft | 12 kts | 325° |
| 2026-04-30 10:53 | 43.30626 | -2.91996 | 132 ft | 10 kts | 77° |
| 2026-04-30 10:53 | 43.30608 | -2.91909 | 132 ft | 9 kts | 115° |
| 2026-04-30 10:53 | 43.30576 | -2.91822 | 132 ft | 17 kts | 117° |
| 2026-04-30 10:53 | 43.30516 | -2.91653 | 132 ft | 20 kts | 117° |
| 2026-04-30 10:54 | 43.30454 | -2.91484 | 132 ft | 20 kts | 116° |
| 2026-04-30 10:54 | 43.30402 | -2.91345 | 132 ft | 13 kts | 117° |
| 2026-04-30 10:54 | 43.30362 | -2.91237 | 132 ft | 12 kts | 116° |
| 2026-04-30 10:54 | 43.30326 | -2.91138 | 132 ft | 11 kts | 117° |
| 2026-04-30 10:55 | 43.30321 | -2.91047 | 132 ft | 9 kts | 60° |
| 2026-04-30 10:55 | 43.30367 | -2.91000 | 132 ft | 8 kts | 27° |
| 2026-04-30 10:55 | 43.30406 | -2.90963 | 132 ft | 7 kts | 50° |
| 2026-04-30 10:55 | 43.30416 | -2.90881 | 132 ft | 9 kts | 93° |
| 2026-04-30 10:56 | 43.30410 | -2.90806 | 132 ft | 7 kts | 105° |
| 2026-04-30 10:56 | 43.30392 | -2.90743 | 132 ft | 7 kts | 116° |
| 2026-04-30 10:56 | 43.30374 | -2.90688 | 132 ft | 6 kts | 102° |
| 2026-04-30 10:56 | 43.30391 | -2.90657 | 132 ft | 4 kts | 20° |
| 2026-04-30 10:57 | 43.30417 | -2.90642 | 132 ft | 2 kts | 26° |
| 2026-04-30 10:57 | 43.30425 | -2.90636 | 132 ft | 0 kts | 27° |